sensor_id;sensor_type;location;lat;lon;timestamp;P1;durP1;ratioP1;P2;durP2;ratioP2
66597;SDS011;57424;53.128;6.406;2022-12-18T00:01:16;10.80;;;7.55;;
66597;SDS011;57424;53.128;6.406;2022-12-18T00:03:44;10.20;;;6.90;;
66597;SDS011;57424;53.128;6.406;2022-12-18T00:06:10;10.70;;;7.28;;
66597;SDS011;57424;53.128;6.406;2022-12-18T00:08:36;10.48;;;7.10;;
66597;SDS011;57424;53.128;6.406;2022-12-18T00:11:10;11.15;;;6.97;;
66597;SDS011;57424;53.128;6.406;2022-12-18T00:13:37;11.20;;;7.38;;
66597;SDS011;57424;53.128;6.406;2022-12-18T00:16:03;10.40;;;6.70;;
66597;SDS011;57424;53.128;6.406;2022-12-18T00:18:31;10.27;;;6.93;;
66597;SDS011;57424;53.128;6.406;2022-12-18T00:21:04;11.63;;;7.55;;
66597;SDS011;57424;53.128;6.406;2022-12-18T00:23:32;10.43;;;7.28;;
66597;SDS011;57424;53.128;6.406;2022-12-18T00:26:00;9.90;;;6.70;;
66597;SDS011;57424;53.128;6.406;2022-12-18T00:28:26;10.95;;;7.55;;
66597;SDS011;57424;53.128;6.406;2022-12-18T00:31:26;9.60;;;7.03;;
66597;SDS011;57424;53.128;6.406;2022-12-18T00:33:46;9.93;;;6.80;;
66597;SDS011;57424;53.128;6.406;2022-12-18T00:36:13;10.30;;;7.40;;
66597;SDS011;57424;53.128;6.406;2022-12-18T00:38:44;11.10;;;7.40;;
66597;SDS011;57424;53.128;6.406;2022-12-18T00:41:11;11.88;;;7.60;;
66597;SDS011;57424;53.128;6.406;2022-12-18T00:43:37;9.68;;;6.30;;
66597;SDS011;57424;53.128;6.406;2022-12-18T00:46:03;11.07;;;7.40;;
66597;SDS011;57424;53.128;6.406;2022-12-18T00:48:29;9.75;;;6.70;;
66597;SDS011;57424;53.128;6.406;2022-12-18T00:50:55;10.45;;;6.78;;
66597;SDS011;57424;53.128;6.406;2022-12-18T00:53:20;9.93;;;6.90;;
66597;SDS011;57424;53.128;6.406;2022-12-18T00:55:46;10.73;;;7.38;;
66597;SDS011;57424;53.128;6.406;2022-12-18T00:58:12;10.57;;;7.10;;
66597;SDS011;57424;53.128;6.406;2022-12-18T01:00:39;11.65;;;7.40;;
66597;SDS011;57424;53.128;6.406;2022-12-18T01:03:05;11.15;;;7.47;;
66597;SDS011;57424;53.128;6.406;2022-12-18T01:05:31;10.70;;;7.00;;
66597;SDS011;57424;53.128;6.406;2022-12-18T01:07:57;11.05;;;7.70;;
66597;SDS011;57424;53.128;6.406;2022-12-18T01:10:23;11.27;;;7.35;;
66597;SDS011;57424;53.128;6.406;2022-12-18T01:12:49;10.75;;;7.47;;
66597;SDS011;57424;53.128;6.406;2022-12-18T01:15:15;11.23;;;7.50;;
66597;SDS011;57424;53.128;6.406;2022-12-18T01:17:41;9.77;;;6.70;;
66597;SDS011;57424;53.128;6.406;2022-12-18T01:20:08;11.50;;;7.30;;
66597;SDS011;57424;53.128;6.406;2022-12-18T01:22:35;11.13;;;7.38;;
66597;SDS011;57424;53.128;6.406;2022-12-18T01:25:01;10.63;;;7.18;;
66597;SDS011;57424;53.128;6.406;2022-12-18T01:27:27;11.70;;;7.85;;
66597;SDS011;57424;53.128;6.406;2022-12-18T01:29:53;10.65;;;7.03;;
66597;SDS011;57424;53.128;6.406;2022-12-18T01:32:19;9.88;;;6.65;;
66597;SDS011;57424;53.128;6.406;2022-12-18T01:34:45;10.35;;;6.72;;
66597;SDS011;57424;53.128;6.406;2022-12-18T01:37:10;10.90;;;7.22;;
66597;SDS011;57424;53.128;6.406;2022-12-18T01:39:36;10.38;;;7.28;;
66597;SDS011;57424;53.128;6.406;2022-12-18T01:42:02;12.88;;;7.07;;
66597;SDS011;57424;53.128;6.406;2022-12-18T01:47:32;11.25;;;7.43;;
66597;SDS011;57424;53.128;6.406;2022-12-18T01:50:11;11.05;;;7.05;;
66597;SDS011;57424;53.128;6.406;2022-12-18T01:52:45;10.73;;;7.45;;
66597;SDS011;57424;53.128;6.406;2022-12-18T01:55:14;9.90;;;7.15;;
66597;SDS011;57424;53.128;6.406;2022-12-18T01:57:43;12.05;;;7.55;;
66597;SDS011;57424;53.128;6.406;2022-12-18T02:00:13;10.32;;;7.40;;
66597;SDS011;57424;53.128;6.406;2022-12-18T02:02:42;10.70;;;7.03;;
66597;SDS011;57424;53.128;6.406;2022-12-18T02:05:09;9.93;;;7.15;;
66597;SDS011;57424;53.128;6.406;2022-12-18T02:07:39;12.50;;;7.63;;
66597;SDS011;57424;53.128;6.406;2022-12-18T02:10:18;10.75;;;7.03;;
66597;SDS011;57424;53.128;6.406;2022-12-18T02:12:56;11.07;;;7.00;;
66597;SDS011;57424;53.128;6.406;2022-12-18T02:15:33;11.02;;;7.63;;
66597;SDS011;57424;53.128;6.406;2022-12-18T02:18:20;11.27;;;7.68;;
66597;SDS011;57424;53.128;6.406;2022-12-18T02:20:52;11.13;;;7.47;;
66597;SDS011;57424;53.128;6.406;2022-12-18T02:26:21;10.48;;;6.90;;
66597;SDS011;57424;53.128;6.406;2022-12-18T02:29:08;11.65;;;7.43;;
66597;SDS011;57424;53.128;6.406;2022-12-18T02:31:47;11.63;;;7.22;;
66597;SDS011;57424;53.128;6.406;2022-12-18T02:34:16;12.30;;;7.63;;
66597;SDS011;57424;53.128;6.406;2022-12-18T02:36:43;10.25;;;6.80;;
66597;SDS011;57424;53.128;6.406;2022-12-18T02:39:10;9.55;;;7.03;;
66597;SDS011;57424;53.128;6.406;2022-12-18T02:41:38;10.23;;;6.90;;
66597;SDS011;57424;53.128;6.406;2022-12-18T02:44:08;11.77;;;7.18;;
66597;SDS011;57424;53.128;6.406;2022-12-18T02:46:36;10.63;;;6.60;;
66597;SDS011;57424;53.128;6.406;2022-12-18T02:49:14;10.27;;;6.82;;
66597;SDS011;57424;53.128;6.406;2022-12-18T02:52:16;10.52;;;7.30;;
66597;SDS011;57424;53.128;6.406;2022-12-18T03:02:43;10.70;;;7.13;;
66597;SDS011;57424;53.128;6.406;2022-12-18T03:05:21;10.35;;;7.28;;
66597;SDS011;57424;53.128;6.406;2022-12-18T03:10:42;11.60;;;7.28;;
66597;SDS011;57424;53.128;6.406;2022-12-18T03:13:13;11.05;;;7.57;;
66597;SDS011;57424;53.128;6.406;2022-12-18T03:15:45;10.13;;;6.97;;
66597;SDS011;57424;53.128;6.406;2022-12-18T03:18:18;10.65;;;7.00;;
66597;SDS011;57424;53.128;6.406;2022-12-18T03:20:51;11.13;;;7.13;;
66597;SDS011;57424;53.128;6.406;2022-12-18T03:23:22;10.52;;;7.10;;
66597;SDS011;57424;53.128;6.406;2022-12-18T03:25:51;9.32;;;7.28;;
66597;SDS011;57424;53.128;6.406;2022-12-18T03:28:21;11.93;;;7.28;;
66597;SDS011;57424;53.128;6.406;2022-12-18T03:30:48;10.77;;;7.43;;
66597;SDS011;57424;53.128;6.406;2022-12-18T03:33:18;11.30;;;7.43;;
66597;SDS011;57424;53.128;6.406;2022-12-18T03:35:49;11.82;;;7.20;;
66597;SDS011;57424;53.128;6.406;2022-12-18T03:38:15;11.60;;;7.53;;
66597;SDS011;57424;53.128;6.406;2022-12-18T03:40:46;9.68;;;6.95;;
66597;SDS011;57424;53.128;6.406;2022-12-18T03:43:38;12.90;;;7.88;;
66597;SDS011;57424;53.128;6.406;2022-12-18T03:46:25;12.70;;;7.53;;
66597;SDS011;57424;53.128;6.406;2022-12-18T03:49:04;12.32;;;7.22;;
66597;SDS011;57424;53.128;6.406;2022-12-18T03:51:50;10.68;;;7.57;;
66597;SDS011;57424;53.128;6.406;2022-12-18T03:54:22;11.38;;;7.50;;
66597;SDS011;57424;53.128;6.406;2022-12-18T03:56:55;11.27;;;7.30;;
66597;SDS011;57424;53.128;6.406;2022-12-18T03:59:25;11.70;;;7.43;;
66597;SDS011;57424;53.128;6.406;2022-12-18T04:04:20;12.85;;;7.90;;
66597;SDS011;57424;53.128;6.406;2022-12-18T04:06:48;12.80;;;8.02;;
66597;SDS011;57424;53.128;6.406;2022-12-18T04:09:15;11.90;;;8.02;;
66597;SDS011;57424;53.128;6.406;2022-12-18T04:11:41;12.93;;;8.48;;
66597;SDS011;57424;53.128;6.406;2022-12-18T04:14:08;12.35;;;7.57;;
66597;SDS011;57424;53.128;6.406;2022-12-18T04:16:34;11.57;;;8.02;;
66597;SDS011;57424;53.128;6.406;2022-12-18T04:19:00;11.88;;;7.53;;
66597;SDS011;57424;53.128;6.406;2022-12-18T04:21:26;13.13;;;8.07;;
66597;SDS011;57424;53.128;6.406;2022-12-18T04:23:51;12.32;;;7.75;;
66597;SDS011;57424;53.128;6.406;2022-12-18T04:26:17;11.68;;;7.50;;
66597;SDS011;57424;53.128;6.406;2022-12-18T04:28:42;13.48;;;7.78;;
66597;SDS011;57424;53.128;6.406;2022-12-18T04:31:08;12.68;;;7.95;;
66597;SDS011;57424;53.128;6.406;2022-12-18T04:33:33;11.82;;;7.72;;
66597;SDS011;57424;53.128;6.406;2022-12-18T04:35:59;11.35;;;7.85;;
66597;SDS011;57424;53.128;6.406;2022-12-18T04:38:24;13.18;;;8.05;;
66597;SDS011;57424;53.128;6.406;2022-12-18T04:40:50;13.00;;;8.05;;
66597;SDS011;57424;53.128;6.406;2022-12-18T04:43:16;12.05;;;7.45;;
66597;SDS011;57424;53.128;6.406;2022-12-18T04:45:41;12.30;;;7.72;;
66597;SDS011;57424;53.128;6.406;2022-12-18T04:48:07;10.60;;;7.18;;
66597;SDS011;57424;53.128;6.406;2022-12-18T04:50:32;13.00;;;8.57;;
66597;SDS011;57424;53.128;6.406;2022-12-18T04:52:58;12.95;;;8.43;;
66597;SDS011;57424;53.128;6.406;2022-12-18T04:55:23;13.13;;;7.80;;
66597;SDS011;57424;53.128;6.406;2022-12-18T04:57:49;12.80;;;8.27;;
66597;SDS011;57424;53.128;6.406;2022-12-18T05:00:15;12.02;;;8.02;;
66597;SDS011;57424;53.128;6.406;2022-12-18T05:02:40;13.25;;;8.32;;
66597;SDS011;57424;53.128;6.406;2022-12-18T05:05:06;12.13;;;7.93;;
66597;SDS011;57424;53.128;6.406;2022-12-18T05:07:32;13.32;;;7.88;;
66597;SDS011;57424;53.128;6.406;2022-12-18T05:09:58;12.10;;;7.75;;
66597;SDS011;57424;53.128;6.406;2022-12-18T05:12:23;13.10;;;8.77;;
66597;SDS011;57424;53.128;6.406;2022-12-18T05:14:49;14.75;;;8.55;;
66597;SDS011;57424;53.128;6.406;2022-12-18T05:17:14;14.32;;;8.93;;
66597;SDS011;57424;53.128;6.406;2022-12-18T05:19:40;12.57;;;8.40;;
66597;SDS011;57424;53.128;6.406;2022-12-18T05:22:05;14.52;;;9.10;;
66597;SDS011;57424;53.128;6.406;2022-12-18T05:24:32;11.70;;;8.05;;
66597;SDS011;57424;53.128;6.406;2022-12-18T05:26:58;13.50;;;8.50;;
66597;SDS011;57424;53.128;6.406;2022-12-18T05:29:24;13.55;;;8.88;;
66597;SDS011;57424;53.128;6.406;2022-12-18T05:31:50;11.25;;;8.35;;
66597;SDS011;57424;53.128;6.406;2022-12-18T05:34:15;13.50;;;8.27;;
66597;SDS011;57424;53.128;6.406;2022-12-18T05:36:41;14.85;;;9.02;;
66597;SDS011;57424;53.128;6.406;2022-12-18T05:39:07;13.52;;;8.38;;
66597;SDS011;57424;53.128;6.406;2022-12-18T05:41:33;15.57;;;9.82;;
66597;SDS011;57424;53.128;6.406;2022-12-18T05:43:59;13.20;;;8.30;;
66597;SDS011;57424;53.128;6.406;2022-12-18T05:46:25;14.18;;;9.48;;
66597;SDS011;57424;53.128;6.406;2022-12-18T05:48:51;12.77;;;8.43;;
66597;SDS011;57424;53.128;6.406;2022-12-18T05:51:17;14.15;;;8.48;;
66597;SDS011;57424;53.128;6.406;2022-12-18T05:53:45;14.27;;;8.80;;
66597;SDS011;57424;53.128;6.406;2022-12-18T05:56:12;13.27;;;8.65;;
66597;SDS011;57424;53.128;6.406;2022-12-18T05:58:39;14.88;;;9.27;;
66597;SDS011;57424;53.128;6.406;2022-12-18T06:01:06;13.65;;;9.30;;
66597;SDS011;57424;53.128;6.406;2022-12-18T06:03:37;15.20;;;8.55;;
66597;SDS011;57424;53.128;6.406;2022-12-18T06:06:02;13.88;;;8.07;;
66597;SDS011;57424;53.128;6.406;2022-12-18T06:08:28;13.73;;;8.50;;
66597;SDS011;57424;53.128;6.406;2022-12-18T06:10:54;13.13;;;8.73;;
66597;SDS011;57424;53.128;6.406;2022-12-18T06:13:20;14.60;;;9.00;;
66597;SDS011;57424;53.128;6.406;2022-12-18T06:15:45;14.38;;;8.65;;
66597;SDS011;57424;53.128;6.406;2022-12-18T06:18:11;14.50;;;8.57;;
66597;SDS011;57424;53.128;6.406;2022-12-18T06:20:36;14.30;;;8.88;;
66597;SDS011;57424;53.128;6.406;2022-12-18T06:23:04;14.23;;;8.38;;
66597;SDS011;57424;53.128;6.406;2022-12-18T06:25:30;14.55;;;9.40;;
66597;SDS011;57424;53.128;6.406;2022-12-18T06:27:56;15.18;;;9.15;;
66597;SDS011;57424;53.128;6.406;2022-12-18T06:30:22;16.85;;;9.27;;
66597;SDS011;57424;53.128;6.406;2022-12-18T06:32:48;15.45;;;9.05;;
66597;SDS011;57424;53.128;6.406;2022-12-18T06:35:14;14.63;;;8.85;;
66597;SDS011;57424;53.128;6.406;2022-12-18T06:37:40;17.65;;;8.85;;
66597;SDS011;57424;53.128;6.406;2022-12-18T06:40:05;15.77;;;9.30;;
66597;SDS011;57424;53.128;6.406;2022-12-18T06:42:31;14.25;;;8.32;;
66597;SDS011;57424;53.128;6.406;2022-12-18T06:44:57;13.55;;;8.52;;
66597;SDS011;57424;53.128;6.406;2022-12-18T06:47:23;14.05;;;8.88;;
66597;SDS011;57424;53.128;6.406;2022-12-18T06:49:48;16.08;;;8.82;;
66597;SDS011;57424;53.128;6.406;2022-12-18T06:52:14;13.98;;;8.88;;
66597;SDS011;57424;53.128;6.406;2022-12-18T06:57:08;14.38;;;8.88;;
66597;SDS011;57424;53.128;6.406;2022-12-18T06:59:33;14.40;;;8.82;;
66597;SDS011;57424;53.128;6.406;2022-12-18T07:01:59;14.30;;;8.48;;
66597;SDS011;57424;53.128;6.406;2022-12-18T07:04:31;15.70;;;9.05;;
66597;SDS011;57424;53.128;6.406;2022-12-18T07:06:57;16.27;;;8.98;;
66597;SDS011;57424;53.128;6.406;2022-12-18T07:09:23;14.45;;;8.57;;
66597;SDS011;57424;53.128;6.406;2022-12-18T07:11:48;15.55;;;9.52;;
66597;SDS011;57424;53.128;6.406;2022-12-18T07:14:14;12.18;;;7.80;;
66597;SDS011;57424;53.128;6.406;2022-12-18T07:16:40;13.20;;;8.00;;
66597;SDS011;57424;53.128;6.406;2022-12-18T07:19:05;13.95;;;8.63;;
66597;SDS011;57424;53.128;6.406;2022-12-18T07:21:31;14.02;;;8.05;;
66597;SDS011;57424;53.128;6.406;2022-12-18T07:23:58;14.32;;;8.07;;
66597;SDS011;57424;53.128;6.406;2022-12-18T07:26:24;14.48;;;9.02;;
66597;SDS011;57424;53.128;6.406;2022-12-18T07:28:49;14.70;;;8.10;;
66597;SDS011;57424;53.128;6.406;2022-12-18T07:31:17;14.00;;;8.38;;
66597;SDS011;57424;53.128;6.406;2022-12-18T07:33:44;14.75;;;8.35;;
66597;SDS011;57424;53.128;6.406;2022-12-18T07:36:10;12.02;;;8.25;;
66597;SDS011;57424;53.128;6.406;2022-12-18T07:38:37;15.15;;;9.00;;
66597;SDS011;57424;53.128;6.406;2022-12-18T07:41:03;11.98;;;8.23;;
66597;SDS011;57424;53.128;6.406;2022-12-18T07:43:30;13.55;;;8.57;;
66597;SDS011;57424;53.128;6.406;2022-12-18T07:45:56;13.15;;;8.20;;
66597;SDS011;57424;53.128;6.406;2022-12-18T07:48:21;14.05;;;8.20;;
66597;SDS011;57424;53.128;6.406;2022-12-18T07:50:47;13.77;;;8.38;;
66597;SDS011;57424;53.128;6.406;2022-12-18T07:53:12;14.80;;;7.88;;
66597;SDS011;57424;53.128;6.406;2022-12-18T07:55:39;14.85;;;7.72;;
66597;SDS011;57424;53.128;6.406;2022-12-18T07:58:06;13.75;;;8.43;;
66597;SDS011;57424;53.128;6.406;2022-12-18T08:00:32;13.85;;;8.13;;
66597;SDS011;57424;53.128;6.406;2022-12-18T08:02:59;12.10;;;7.82;;
66597;SDS011;57424;53.128;6.406;2022-12-18T08:05:24;13.43;;;7.88;;
66597;SDS011;57424;53.128;6.406;2022-12-18T08:07:50;12.35;;;7.68;;
66597;SDS011;57424;53.128;6.406;2022-12-18T08:10:15;12.88;;;8.10;;
66597;SDS011;57424;53.128;6.406;2022-12-18T08:12:41;12.55;;;7.85;;
66597;SDS011;57424;53.128;6.406;2022-12-18T08:15:07;11.68;;;7.18;;
66597;SDS011;57424;53.128;6.406;2022-12-18T08:17:33;14.75;;;7.97;;
66597;SDS011;57424;53.128;6.406;2022-12-18T08:19:59;12.57;;;7.88;;
66597;SDS011;57424;53.128;6.406;2022-12-18T08:22:24;12.38;;;7.70;;
66597;SDS011;57424;53.128;6.406;2022-12-18T08:24:50;13.57;;;8.10;;
66597;SDS011;57424;53.128;6.406;2022-12-18T08:27:15;14.80;;;7.35;;
66597;SDS011;57424;53.128;6.406;2022-12-18T08:29:41;13.05;;;7.40;;
66597;SDS011;57424;53.128;6.406;2022-12-18T08:32:07;13.45;;;7.85;;
66597;SDS011;57424;53.128;6.406;2022-12-18T08:34:32;12.45;;;7.90;;
66597;SDS011;57424;53.128;6.406;2022-12-18T08:36:58;13.95;;;7.00;;
66597;SDS011;57424;53.128;6.406;2022-12-18T08:39:23;12.90;;;7.28;;
66597;SDS011;57424;53.128;6.406;2022-12-18T08:41:49;12.65;;;7.22;;
66597;SDS011;57424;53.128;6.406;2022-12-18T08:44:33;10.93;;;6.78;;
66597;SDS011;57424;53.128;6.406;2022-12-18T08:47:05;12.23;;;7.18;;
66597;SDS011;57424;53.128;6.406;2022-12-18T08:49:32;12.68;;;7.20;;
66597;SDS011;57424;53.128;6.406;2022-12-18T08:51:58;12.05;;;7.80;;
66597;SDS011;57424;53.128;6.406;2022-12-18T08:54:24;13.45;;;7.40;;
66597;SDS011;57424;53.128;6.406;2022-12-18T08:56:50;11.05;;;7.22;;
66597;SDS011;57424;53.128;6.406;2022-12-18T08:59:16;11.05;;;6.43;;
66597;SDS011;57424;53.128;6.406;2022-12-18T09:01:42;10.60;;;6.57;;
66597;SDS011;57424;53.128;6.406;2022-12-18T09:04:08;11.23;;;7.07;;
66597;SDS011;57424;53.128;6.406;2022-12-18T09:06:34;12.27;;;6.82;;
66597;SDS011;57424;53.128;6.406;2022-12-18T09:09:00;11.10;;;7.07;;
66597;SDS011;57424;53.128;6.406;2022-12-18T09:11:26;11.68;;;7.00;;
66597;SDS011;57424;53.128;6.406;2022-12-18T09:13:53;9.73;;;6.67;;
66597;SDS011;57424;53.128;6.406;2022-12-18T09:16:20;10.50;;;6.75;;
66597;SDS011;57424;53.128;6.406;2022-12-18T09:18:47;11.18;;;6.85;;
66597;SDS011;57424;53.128;6.406;2022-12-18T09:21:16;12.77;;;6.50;;
66597;SDS011;57424;53.128;6.406;2022-12-18T09:23:45;8.48;;;6.45;;
66597;SDS011;57424;53.128;6.406;2022-12-18T09:26:17;9.80;;;6.22;;
66597;SDS011;57424;53.128;6.406;2022-12-18T09:28:43;9.60;;;6.80;;
66597;SDS011;57424;53.128;6.406;2022-12-18T09:31:10;11.13;;;6.88;;
66597;SDS011;57424;53.128;6.406;2022-12-18T09:33:39;10.02;;;6.53;;
66597;SDS011;57424;53.128;6.406;2022-12-18T09:36:06;9.18;;;6.50;;
66597;SDS011;57424;53.128;6.406;2022-12-18T09:38:32;10.07;;;6.72;;
66597;SDS011;57424;53.128;6.406;2022-12-18T09:41:00;11.23;;;6.10;;
66597;SDS011;57424;53.128;6.406;2022-12-18T09:43:48;10.38;;;6.10;;
66597;SDS011;57424;53.128;6.406;2022-12-18T09:46:20;11.15;;;6.57;;
66597;SDS011;57424;53.128;6.406;2022-12-18T09:48:52;8.32;;;5.75;;
66597;SDS011;57424;53.128;6.406;2022-12-18T09:51:38;9.93;;;5.97;;
66597;SDS011;57424;53.128;6.406;2022-12-18T09:54:42;10.40;;;6.43;;
66597;SDS011;57424;53.128;6.406;2022-12-18T09:57:03;8.48;;;5.55;;
66597;SDS011;57424;53.128;6.406;2022-12-18T09:59:31;8.82;;;5.75;;
66597;SDS011;57424;53.128;6.406;2022-12-18T10:02:11;9.48;;;6.25;;
66597;SDS011;57424;53.128;6.406;2022-12-18T10:04:48;10.98;;;6.55;;
66597;SDS011;57424;53.128;6.406;2022-12-18T10:07:36;8.60;;;5.93;;
66597;SDS011;57424;53.128;6.406;2022-12-18T10:13:07;9.90;;;6.50;;
66597;SDS011;57424;53.128;6.406;2022-12-18T10:16:03;9.18;;;5.88;;
66597;SDS011;57424;53.128;6.406;2022-12-18T10:21:25;7.50;;;5.15;;
66597;SDS011;57424;53.128;6.406;2022-12-18T10:24:03;10.63;;;5.70;;
66597;SDS011;57424;53.128;6.406;2022-12-18T10:26:59;8.18;;;5.50;;
66597;SDS011;57424;53.128;6.406;2022-12-18T10:29:36;7.95;;;5.65;;
66597;SDS011;57424;53.128;6.406;2022-12-18T10:32:02;8.07;;;5.53;;
66597;SDS011;57424;53.128;6.406;2022-12-18T10:34:27;7.97;;;5.60;;
66597;SDS011;57424;53.128;6.406;2022-12-18T10:36:53;7.43;;;5.60;;
66597;SDS011;57424;53.128;6.406;2022-12-18T10:39:20;8.15;;;5.68;;
66597;SDS011;57424;53.128;6.406;2022-12-18T10:41:51;8.38;;;5.45;;
66597;SDS011;57424;53.128;6.406;2022-12-18T10:44:33;7.18;;;5.30;;
66597;SDS011;57424;53.128;6.406;2022-12-18T10:47:02;7.38;;;5.43;;
66597;SDS011;57424;53.128;6.406;2022-12-18T10:49:30;6.70;;;5.15;;
66597;SDS011;57424;53.128;6.406;2022-12-18T10:52:15;9.13;;;5.35;;
66597;SDS011;57424;53.128;6.406;2022-12-18T10:54:47;7.75;;;5.03;;
66597;SDS011;57424;53.128;6.406;2022-12-18T10:57:39;7.85;;;5.25;;
66597;SDS011;57424;53.128;6.406;2022-12-18T11:00:26;6.68;;;4.82;;
66597;SDS011;57424;53.128;6.406;2022-12-18T11:02:55;9.32;;;5.15;;
66597;SDS011;57424;53.128;6.406;2022-12-18T11:05:26;7.05;;;4.57;;
66597;SDS011;57424;53.128;6.406;2022-12-18T11:07:54;8.40;;;5.07;;
66597;SDS011;57424;53.128;6.406;2022-12-18T11:10:25;7.35;;;5.13;;
66597;SDS011;57424;53.128;6.406;2022-12-18T11:13:12;9.05;;;5.53;;
66597;SDS011;57424;53.128;6.406;2022-12-18T11:15:43;7.70;;;5.35;;
66597;SDS011;57424;53.128;6.406;2022-12-18T11:18:19;7.30;;;5.00;;
66597;SDS011;57424;53.128;6.406;2022-12-18T11:20:53;7.35;;;5.28;;
66597;SDS011;57424;53.128;6.406;2022-12-18T11:23:24;6.22;;;4.72;;
66597;SDS011;57424;53.128;6.406;2022-12-18T11:25:51;7.30;;;5.28;;
66597;SDS011;57424;53.128;6.406;2022-12-18T11:33:40;7.45;;;4.47;;
66597;SDS011;57424;53.128;6.406;2022-12-18T11:36:09;6.10;;;4.70;;
66597;SDS011;57424;53.128;6.406;2022-12-18T11:38:40;6.20;;;4.45;;
66597;SDS011;57424;53.128;6.406;2022-12-18T11:41:26;5.40;;;4.30;;
66597;SDS011;57424;53.128;6.406;2022-12-18T11:44:22;5.85;;;4.57;;
66597;SDS011;57424;53.128;6.406;2022-12-18T11:46:53;7.05;;;5.00;;
66597;SDS011;57424;53.128;6.406;2022-12-18T11:49:25;6.85;;;4.90;;
66597;SDS011;57424;53.128;6.406;2022-12-18T11:51:58;6.93;;;5.18;;
66597;SDS011;57424;53.128;6.406;2022-12-18T11:54:25;7.53;;;5.30;;
66597;SDS011;57424;53.128;6.406;2022-12-18T11:56:53;6.50;;;5.22;;
66597;SDS011;57424;53.128;6.406;2022-12-18T12:10:22;7.97;;;5.30;;
66597;SDS011;57424;53.128;6.406;2022-12-18T12:18:25;8.68;;;5.25;;
66597;SDS011;57424;53.128;6.406;2022-12-18T12:24:12;7.22;;;5.15;;
66597;SDS011;57424;53.128;6.406;2022-12-18T12:32:32;5.50;;;4.72;;
66597;SDS011;57424;53.128;6.406;2022-12-18T12:35:22;7.50;;;4.70;;
66597;SDS011;57424;53.128;6.406;2022-12-18T12:38:00;6.57;;;4.30;;
66597;SDS011;57424;53.128;6.406;2022-12-18T12:40:34;7.30;;;4.47;;
66597;SDS011;57424;53.128;6.406;2022-12-18T12:43:15;5.85;;;4.50;;
66597;SDS011;57424;53.128;6.406;2022-12-18T12:45:54;5.68;;;4.18;;
66597;SDS011;57424;53.128;6.406;2022-12-18T12:50:52;5.90;;;4.40;;
66597;SDS011;57424;53.128;6.406;2022-12-18T12:53:21;6.75;;;4.40;;
66597;SDS011;57424;53.128;6.406;2022-12-18T12:55:53;5.57;;;4.13;;
66597;SDS011;57424;53.128;6.406;2022-12-18T12:58:23;6.13;;;4.38;;
66597;SDS011;57424;53.128;6.406;2022-12-18T13:06:12;6.05;;;3.92;;
66597;SDS011;57424;53.128;6.406;2022-12-18T13:08:52;5.28;;;3.58;;
66597;SDS011;57424;53.128;6.406;2022-12-18T13:11:28;5.70;;;4.05;;
66597;SDS011;57424;53.128;6.406;2022-12-18T13:14:23;6.07;;;4.15;;
66597;SDS011;57424;53.128;6.406;2022-12-18T13:17:23;5.80;;;3.80;;
66597;SDS011;57424;53.128;6.406;2022-12-18T13:20:10;5.90;;;3.72;;
66597;SDS011;57424;53.128;6.406;2022-12-18T13:25:28;5.38;;;3.80;;
66597;SDS011;57424;53.128;6.406;2022-12-18T13:28:05;5.90;;;4.00;;
66597;SDS011;57424;53.128;6.406;2022-12-18T13:43:42;5.25;;;3.72;;
66597;SDS011;57424;53.128;6.406;2022-12-18T13:51:31;5.68;;;3.60;;
66597;SDS011;57424;53.128;6.406;2022-12-18T13:54:02;4.07;;;3.03;;
66597;SDS011;57424;53.128;6.406;2022-12-18T13:56:43;4.63;;;3.38;;
66597;SDS011;57424;53.128;6.406;2022-12-18T14:01:45;4.70;;;3.33;;
66597;SDS011;57424;53.128;6.406;2022-12-18T14:04:20;6.18;;;3.20;;
66597;SDS011;57424;53.128;6.406;2022-12-18T14:06:49;5.80;;;3.13;;
66597;SDS011;57424;53.128;6.406;2022-12-18T14:09:19;5.00;;;3.40;;
66597;SDS011;57424;53.128;6.406;2022-12-18T14:11:50;4.63;;;3.03;;
66597;SDS011;57424;53.128;6.406;2022-12-18T14:14:17;5.07;;;3.60;;
66597;SDS011;57424;53.128;6.406;2022-12-18T14:16:44;5.13;;;3.27;;
66597;SDS011;57424;53.128;6.406;2022-12-18T14:19:15;5.50;;;3.40;;
66597;SDS011;57424;53.128;6.406;2022-12-18T14:21:49;4.35;;;3.25;;
66597;SDS011;57424;53.128;6.406;2022-12-18T14:24:19;6.72;;;3.30;;
66597;SDS011;57424;53.128;6.406;2022-12-18T14:26:47;3.78;;;2.90;;
66597;SDS011;57424;53.128;6.406;2022-12-18T14:29:24;5.07;;;3.15;;
66597;SDS011;57424;53.128;6.406;2022-12-18T14:34:37;4.93;;;3.13;;
66597;SDS011;57424;53.128;6.406;2022-12-18T14:37:03;4.30;;;2.97;;
66597;SDS011;57424;53.128;6.406;2022-12-18T14:39:29;5.00;;;3.30;;
66597;SDS011;57424;53.128;6.406;2022-12-18T14:41:54;3.30;;;3.00;;
66597;SDS011;57424;53.128;6.406;2022-12-18T14:44:20;5.28;;;2.88;;
66597;SDS011;57424;53.128;6.406;2022-12-18T14:46:46;4.30;;;2.88;;
66597;SDS011;57424;53.128;6.406;2022-12-18T14:49:29;3.95;;;3.05;;
66597;SDS011;57424;53.128;6.406;2022-12-18T14:52:01;5.10;;;2.90;;
66597;SDS011;57424;53.128;6.406;2022-12-18T14:54:31;5.35;;;3.00;;
66597;SDS011;57424;53.128;6.406;2022-12-18T14:57:00;4.05;;;2.95;;
66597;SDS011;57424;53.128;6.406;2022-12-18T14:59:45;4.63;;;3.05;;
66597;SDS011;57424;53.128;6.406;2022-12-18T15:04:46;5.22;;;2.85;;
66597;SDS011;57424;53.128;6.406;2022-12-18T15:07:16;4.60;;;2.90;;
66597;SDS011;57424;53.128;6.406;2022-12-18T15:10:31;3.60;;;2.78;;
66597;SDS011;57424;53.128;6.406;2022-12-18T15:13:08;4.25;;;2.80;;
66597;SDS011;57424;53.128;6.406;2022-12-18T15:17:59;4.68;;;2.70;;
66597;SDS011;57424;53.128;6.406;2022-12-18T15:20:30;3.85;;;3.03;;
66597;SDS011;57424;53.128;6.406;2022-12-18T15:22:57;4.43;;;3.00;;
66597;SDS011;57424;53.128;6.406;2022-12-18T15:27:53;3.60;;;2.55;;
66597;SDS011;57424;53.128;6.406;2022-12-18T15:30:20;4.38;;;2.53;;
66597;SDS011;57424;53.128;6.406;2022-12-18T15:32:48;5.25;;;2.88;;
66597;SDS011;57424;53.128;6.406;2022-12-18T15:35:15;3.65;;;2.85;;
66597;SDS011;57424;53.128;6.406;2022-12-18T15:37:49;5.00;;;3.50;;
66597;SDS011;57424;53.128;6.406;2022-12-18T15:40:17;7.13;;;4.80;;
66597;SDS011;57424;53.128;6.406;2022-12-18T15:42:44;9.95;;;5.03;;
66597;SDS011;57424;53.128;6.406;2022-12-18T15:45:29;9.57;;;5.63;;
66597;SDS011;57424;53.128;6.406;2022-12-18T15:47:55;6.95;;;4.05;;
66597;SDS011;57424;53.128;6.406;2022-12-18T15:50:21;6.45;;;3.65;;
66597;SDS011;57424;53.128;6.406;2022-12-18T15:52:48;9.02;;;4.15;;
66597;SDS011;57424;53.128;6.406;2022-12-18T15:55:17;11.40;;;5.72;;
66597;SDS011;57424;53.128;6.406;2022-12-18T15:58:03;23.83;;;10.02;;
66597;SDS011;57424;53.128;6.406;2022-12-18T16:00:32;16.65;;;8.07;;
66597;SDS011;57424;53.128;6.406;2022-12-18T16:02:59;12.70;;;7.03;;
66597;SDS011;57424;53.128;6.406;2022-12-18T16:05:26;11.13;;;6.15;;
66597;SDS011;57424;53.128;6.406;2022-12-18T16:07:52;9.38;;;5.80;;
66597;SDS011;57424;53.128;6.406;2022-12-18T16:10:18;10.20;;;5.30;;
66597;SDS011;57424;53.128;6.406;2022-12-18T16:12:44;9.65;;;5.32;;
66597;SDS011;57424;53.128;6.406;2022-12-18T16:15:10;8.40;;;5.55;;
66597;SDS011;57424;53.128;6.406;2022-12-18T16:17:38;8.93;;;4.65;;
66597;SDS011;57424;53.128;6.406;2022-12-18T16:20:04;9.85;;;5.15;;
66597;SDS011;57424;53.128;6.406;2022-12-18T16:22:31;9.77;;;5.20;;
66597;SDS011;57424;53.128;6.406;2022-12-18T16:24:57;7.88;;;4.38;;
66597;SDS011;57424;53.128;6.406;2022-12-18T16:27:23;7.28;;;4.32;;
66597;SDS011;57424;53.128;6.406;2022-12-18T16:29:50;7.40;;;4.65;;
66597;SDS011;57424;53.128;6.406;2022-12-18T16:32:17;7.30;;;3.90;;
66597;SDS011;57424;53.128;6.406;2022-12-18T16:34:44;10.65;;;4.65;;
66597;SDS011;57424;53.128;6.406;2022-12-18T16:37:11;9.07;;;4.55;;